Terminal Aerodrome Forecast
Issued by NWS Green Bay, WI

Home | Current Version | Previous Version | Graphics & Text | Print | Product List | Glossary On
Versions: 1 2 3 4 5 6 7 8 9 10 11 12 13 14 15 16 17 18 19 20
000
FTUS43 KGRB 220159 AAA
TAFGRB
TAF AMD
KGRB 220159Z 2202/2224 33012G20KT P6SM BKN035
     FM220400 31010KT P6SM SCT035
     FM221000 29006KT P6SM SKC
     FM221700 24008KT P6SM SCT250
     FM222200 21007KT P6SM BKN150=

USA.gov is the U.S. government's official web portal to all federal, state and local government web resources and services.